Time;durP1;ratioP1;P1;durP2;ratioP2;P2;SDS_P1;SDS_P2;PMS_P1;PMS_P2;Temp;Humidity;BMP_temperature;BMP_pressure;BME280_temperature;BME280_humidity;BME280_pressure;Samples;Min_cycle;Max_cycle;Signal;HPM_P1;HPM_P2
2023/05/22 00:00:43;;;;;;;;;;;;;;;19.25;100.00;-18544.78;5005365;28;19951;-79
2023/05/22 00:03:09;;;;;;;;;;;;;;;19.29;100.00;-18545.88;5010782;28;19929;-80
2023/05/22 00:05:37;;;;;;;;;;;;;;;19.43;100.00;-18549.69;5006096;28;19929;-79
2023/05/22 00:08:03;;;;;;;;;;;;;;;19.61;100.00;-18554.59;5013704;28;19922;-79
2023/05/22 00:10:28;;;;;;;;;;;;;;;19.55;100.00;-18552.84;5006366;28;19956;-79
2023/05/22 00:12:54;;;;;;;;;;;;;;;19.29;100.00;-18545.88;5007541;28;19937;-80
2023/05/22 00:15:19;;;;;;;;;;;;;;;19.32;100.00;-18546.84;5014667;28;19921;-79
2023/05/22 00:17:44;;;;;;;;;;;;;;;19.24;100.00;-18544.66;5009614;28;19930;-79
2023/05/22 00:20:10;;;;;;;;;;;;;;;19.19;100.00;-18543.31;5004491;28;19922;-79
2023/05/22 00:22:36;;;;;;;;;;;;;;;19.18;100.00;-18543.03;5005506;28;19929;-79
2023/05/22 00:25:04;;;;;;;;;;;;;;;19.29;100.00;-18545.88;5005049;28;19921;-79
2023/05/22 00:27:29;;;;;;;;;;;;;;;19.17;100.00;-18542.88;5004163;28;19922;-79
2023/05/22 00:29:55;;;;;;;;;;;;;;;19.27;100.00;-18545.34;5003247;28;19922;-79
2023/05/22 00:32:20;;;;;;;;;;;;;;;19.24;100.00;-18544.66;5006729;28;20396;-79
2023/05/22 00:34:45;;;;;;;;;;;;;;;19.34;100.00;-18547.25;5007972;28;20556;-79
2023/05/22 00:37:10;;;;;;;;;;;;;;;19.29;100.00;-18545.88;5007062;28;20356;-79
2023/05/22 00:39:35;;;;;;;;;;;;;;;19.39;100.00;-18548.59;5010022;28;20406;-79
2023/05/22 00:42:01;;;;;;;;;;;;;;;19.57;100.00;-18553.50;5007200;28;19925;-79
2023/05/22 00:44:26;;;;;;;;;;;;;;;19.53;100.00;-18552.44;5008467;28;20565;-79
2023/05/22 00:46:51;;;;;;;;;;;;;;;19.64;100.00;-18555.28;5011433;28;19929;-79
2023/05/22 00:49:17;;;;;;;;;;;;;;;19.53;100.00;-18552.28;5019477;28;19944;-79
2023/05/22 00:51:42;;;;;;;;;;;;;;;19.63;100.00;-18555.00;5008858;28;19967;-79
2023/05/22 00:54:09;;;;;;;;;;;;;;;19.37;100.00;-18548.06;5006165;28;19922;-80
2023/05/22 00:56:34;;;;;;;;;;;;;;;19.37;100.00;-18548.06;5012230;28;19989;-79
2023/05/22 00:58:59;;;;;;;;;;;;;;;19.51;100.00;-18551.75;5010810;28;19957;-79
2023/05/22 01:01:25;;;;;;;;;;;;;;;19.47;100.00;-18550.66;5012993;28;19977;-79
2023/05/22 01:03:51;;;;;;;;;;;;;;;19.37;100.00;-18548.19;5010749;28;19933;-79
2023/05/22 01:06:23;;;;;;;;;;;;;;;19.36;100.00;-18547.78;5010272;28;19976;-79
2023/05/22 01:08:48;;;;;;;;;;;;;;;19.24;100.00;-18544.66;5004449;28;19985;-80
2023/05/22 01:11:20;;;;;;;;;;;;;;;19.40;100.00;-18548.88;5019575;28;20415;-80
2023/05/22 01:14:00;;;;;;;;;;;;;;;19.35;100.00;-18547.53;5015803;28;19926;-79
2023/05/22 01:16:28;;;;;;;;;;;;;;;19.40;100.00;-18548.88;5008637;28;20408;-79
2023/05/22 01:19:09;;;;;;;;;;;;;;;19.28;100.00;-18545.63;5010117;28;20356;-80
2023/05/22 01:21:37;;;;;;;;;;;;;;;19.38;100.00;-18548.47;5013159;28;20009;-79
2023/05/22 01:24:02;;;;;;;;;;;;;;;19.34;100.00;-18547.38;5010888;28;19922;-79
2023/05/22 01:26:27;;;;;;;;;;;;;;;19.39;100.00;-18548.75;5008096;28;19936;-79
2023/05/22 01:29:11;;;;;;;;;;;;;;;19.44;100.00;-18549.84;5007467;28;19925;-79
2023/05/22 01:31:41;;;;;;;;;;;;;;;19.04;100.00;-18539.34;5007307;28;19980;-79
2023/05/22 01:34:09;;;;;;;;;;;;;;;19.02;100.00;-18538.66;5006298;28;19972;-79
2023/05/22 01:36:35;;;;;;;;;;;;;;;19.10;100.00;-18540.84;5017867;28;20015;-79
2023/05/22 01:39:04;;;;;;;;;;;;;;;19.15;100.00;-18542.34;5016203;28;19921;-79
2023/05/22 01:41:30;;;;;;;;;;;;;;;19.23;100.00;-18544.25;5015120;28;19928;-79
2023/05/22 01:43:56;;;;;;;;;;;;;;;19.10;100.00;-18540.97;5009371;28;19975;-79
2023/05/22 01:46:24;;;;;;;;;;;;;;;18.85;100.00;-18534.16;5009447;28;19987;-79
2023/05/22 01:48:49;;;;;;;;;;;;;;;18.91;100.00;-18535.81;5012227;28;19921;-79
2023/05/22 01:51:19;;;;;;;;;;;;;;;18.93;100.00;-18536.34;5009865;28;19964;-79
2023/05/22 01:53:54;;;;;;;;;;;;;;;19.04;100.00;-18539.34;5011106;28;19929;-79
2023/05/22 01:56:29;;;;;;;;;;;;;;;19.14;100.00;-18542.06;5000954;28;19924;-80
2023/05/22 01:59:06;;;;;;;;;;;;;;;19.16;100.00;-18542.63;5002199;28;20032;-80
2023/05/22 02:01:33;;;;;;;;;;;;;;;19.09;100.00;-18540.72;5004914;28;19967;-80
2023/05/22 02:03:59;;;;;;;;;;;;;;;19.36;100.00;-18547.78;5003445;28;19929;-80
2023/05/22 02:06:27;;;;;;;;;;;;;;;19.38;100.00;-18548.34;5009029;28;19964;-80
2023/05/22 02:08:53;;;;;;;;;;;;;;;19.09;100.00;-18540.72;4995437;28;19989;-79
2023/05/22 02:11:20;;;;;;;;;;;;;;;19.05;100.00;-18539.63;4999548;28;20297;-79
2023/05/22 02:13:46;;;;;;;;;;;;;;;18.96;100.00;-18537.16;5004040;28;19998;-79
2023/05/22 02:16:12;;;;;;;;;;;;;;;19.14;100.00;-18541.94;4998349;28;20550;-80
2023/05/22 02:18:40;;;;;;;;;;;;;;;19.20;100.00;-18543.56;4999840;28;19922;-80
2023/05/22 02:21:07;;;;;;;;;;;;;;;19.25;100.00;-18544.78;5006160;28;19971;-80
2023/05/22 02:23:32;;;;;;;;;;;;;;;19.17;100.00;-18542.88;5003863;28;19969;-79
2023/05/22 02:25:58;;;;;;;;;;;;;;;19.09;100.00;-18540.72;5001139;28;19929;-80
2023/05/22 02:28:23;;;;;;;;;;;;;;;19.08;100.00;-18540.44;4997346;28;20013;-79
2023/05/22 02:30:48;;;;;;;;;;;;;;;19.12;100.00;-18541.53;4998548;28;20536;-80
2023/05/22 02:33:16;;;;;;;;;;;;;;;19.25;100.00;-18544.94;5004644;28;19925;-79
2023/05/22 02:35:42;;;;;;;;;;;;;;;19.14;100.00;-18542.06;5001653;28;19922;-79
2023/05/22 02:38:07;;;;;;;;;;;;;;;18.90;100.00;-18535.53;4999111;28;20363;-78
2023/05/22 02:40:32;;;;;;;;;;;;;;;19.00;100.00;-18538.25;5001658;28;19922;-80
2023/05/22 02:42:57;;;;;;;;;;;;;;;19.23;100.00;-18544.25;5005143;28;20517;-78
2023/05/22 02:45:23;;;;;;;;;;;;;;;19.06;100.00;-18539.75;4998101;28;20368;-79
2023/05/22 02:47:48;;;;;;;;;;;;;;;19.02;100.00;-18538.81;5002155;28;19991;-79
2023/05/22 02:50:13;;;;;;;;;;;;;;;19.04;100.00;-18539.22;5001354;28;19925;-78
2023/05/22 02:52:38;;;;;;;;;;;;;;;19.28;100.00;-18545.63;5005569;28;19934;-79
2023/05/22 02:55:04;;;;;;;;;;;;;;;19.15;100.00;-18542.22;5004828;28;19952;-79
2023/05/22 02:57:30;;;;;;;;;;;;;;;19.02;100.00;-18538.81;5006273;28;19928;-80
2023/05/22 02:59:56;;;;;;;;;;;;;;;19.36;100.00;-18547.94;5004130;28;19928;-81
2023/05/22 03:02:21;;;;;;;;;;;;;;;19.20;100.00;-18543.44;5001566;28;19933;-80
2023/05/22 03:04:47;;;;;;;;;;;;;;;19.34;100.00;-18547.38;4996776;28;19929;-79
2023/05/22 03:07:12;;;;;;;;;;;;;;;19.31;100.00;-18546.44;5002328;28;20617;-79
2023/05/22 03:09:37;;;;;;;;;;;;;;;19.29;100.00;-18545.88;5001549;28;20352;-80
2023/05/22 03:12:03;;;;;;;;;;;;;;;19.36;100.00;-18547.78;5002332;28;19925;-80
2023/05/22 03:14:29;;;;;;;;;;;;;;;19.28;100.00;-18545.63;5007771;28;19922;-79
2023/05/22 03:16:54;;;;;;;;;;;;;;;19.32;100.00;-18546.72;5002181;28;19936;-80
2023/05/22 03:19:20;;;;;;;;;;;;;;;19.33;100.00;-18546.97;5004531;28;19981;-80
2023/05/22 03:21:47;;;;;;;;;;;;;;;18.81;100.00;-18533.22;5001265;28;19926;-80
2023/05/22 03:24:12;;;;;;;;;;;;;;;18.78;100.00;-18532.25;5001676;28;19922;-80
2023/05/22 03:26:38;;;;;;;;;;;;;;;18.95;100.00;-18536.91;5000199;28;19931;-79
2023/05/22 03:29:03;;;;;;;;;;;;;;;18.69;100.00;-18530.06;4997000;28;19930;-79
2023/05/22 03:31:31;;;;;;;;;;;;;;;18.72;100.00;-18530.88;5002909;28;19922;-80
2023/05/22 03:33:57;;;;;;;;;;;;;;;18.47;100.00;-18524.22;5001331;28;19933;-80
2023/05/22 03:36:22;;;;;;;;;;;;;;;18.44;100.00;-18523.25;4998670;28;19979;-79
2023/05/22 03:38:47;;;;;;;;;;;;;;;18.38;100.00;-18521.63;4996473;28;19921;-80
2023/05/22 03:41:13;;;;;;;;;;;;;;;18.52;100.00;-18525.44;4999665;28;19925;-80
2023/05/22 03:43:38;;;;;;;;;;;;;;;18.60;100.00;-18527.47;5000577;28;19929;-79
2023/05/22 03:46:03;;;;;;;;;;;;;;;18.64;100.00;-18528.72;5001158;28;19986;-80
2023/05/22 03:48:30;;;;;;;;;;;;;;;18.65;100.00;-18528.97;5002830;28;20048;-80
2023/05/22 03:50:55;;;;;;;;;;;;;;;18.74;100.00;-18531.31;5005461;28;20365;-80
2023/05/22 03:53:20;;;;;;;;;;;;;;;18.75;100.00;-18531.56;5006602;28;20512;-79
2023/05/22 03:55:46;;;;;;;;;;;;;;;18.73;100.00;-18531.03;5000528;28;19921;-80
2023/05/22 03:58:11;;;;;;;;;;;;;;;18.89;100.00;-18535.41;4998886;28;19929;-79
2023/05/22 04:00:37;;;;;;;;;;;;;;;18.71;100.00;-18530.63;5004734;28;19928;-80
2023/05/22 04:03:02;;;;;;;;;;;;;;;18.87;100.00;-18534.72;4994406;28;19929;-79
2023/05/22 04:05:28;;;;;;;;;;;;;;;18.92;100.00;-18536.06;5002597;28;20024;-79
2023/05/22 04:07:54;;;;;;;;;;;;;;;18.95;100.00;-18536.91;5001956;28;20184;-79
2023/05/22 04:10:22;;;;;;;;;;;;;;;19.04;100.00;-18539.22;5004966;28;19948;-80
2023/05/22 04:12:47;;;;;;;;;;;;;;;19.04;100.00;-18539.22;5000054;28;19928;-79
2023/05/22 04:15:12;;;;;;;;;;;;;;;19.13;100.00;-18541.66;5001655;28;19922;-79
2023/05/22 04:17:38;;;;;;;;;;;;;;;19.16;100.00;-18542.47;5002375;28;19960;-79
2023/05/22 04:20:05;;;;;;;;;;;;;;;19.05;100.00;-18539.63;4996821;28;19925;-79
2023/05/22 04:22:30;;;;;;;;;;;;;;;19.11;100.00;-18541.25;4998649;28;19925;-79
2023/05/22 04:24:55;;;;;;;;;;;;;;;19.11;100.00;-18541.25;4993768;28;20487;-78
2023/05/22 04:27:21;;;;;;;;;;;;;;;19.21;100.00;-18543.72;4994330;28;20404;-79
2023/05/22 04:29:47;;;;;;;;;;;;;;;19.51;100.00;-18551.88;4997502;28;20297;-79
2023/05/22 04:32:16;;;;;;;;;;;;;;;19.23;100.00;-18544.25;4998554;28;20076;-80
2023/05/22 04:34:43;;;;;;;;;;;;;;;19.29;100.00;-18545.88;4996908;28;19922;-80
2023/05/22 04:37:09;;;;;;;;;;;;;;;19.29;100.00;-18545.88;4997594;28;19926;-79
2023/05/22 04:39:34;;;;;;;;;;;;;;;19.14;100.00;-18542.06;4991352;28;19972;-78
2023/05/22 04:42:04;;;;;;;;;;;;;;;19.23;100.00;-18544.25;4991098;28;20021;-79
2023/05/22 04:44:33;;;;;;;;;;;;;;;19.31;100.00;-18546.56;4996543;28;19928;-79
2023/05/22 04:46:58;;;;;;;;;;;;;;;19.39;100.00;-18548.59;4993108;28;19925;-78
2023/05/22 04:49:25;;;;;;;;;;;;;;;19.19;100.00;-18543.16;4993276;28;20423;-78
2023/05/22 04:51:50;;;;;;;;;;;;;;;19.19;100.00;-18543.16;4996654;28;19929;-78
2023/05/22 04:54:15;;;;;;;;;;;;;;;19.10;100.00;-18540.84;4993571;28;19996;-78
2023/05/22 04:56:40;;;;;;;;;;;;;;;19.38;100.00;-18548.47;4997948;28;19988;-78
2023/05/22 04:59:07;;;;;;;;;;;;;;;19.40;100.00;-18548.88;4993453;28;20037;-78
2023/05/22 05:01:33;;;;;;;;;;;;;;;19.57;100.00;-18553.50;4997915;28;20157;-78
2023/05/22 05:03:59;;;;;;;;;;;;;;;19.96;100.00;-18563.88;4997991;28;19921;-78
2023/05/22 05:06:24;;;;;;;;;;;;;;;19.58;100.00;-18553.66;4996675;28;19995;-79
2023/05/22 05:08:51;;;;;;;;;;;;;;;19.12;100.00;-18541.38;5001116;28;20312;-79
2023/05/22 05:11:17;;;;;;;;;;;;;;;19.20;100.00;-18543.56;4997638;28;19922;-79
2023/05/22 05:13:42;;;;;;;;;;;;;;;18.81;100.00;-18533.22;4999220;28;19922;-79
2023/05/22 05:16:07;;;;;;;;;;;;;;;18.84;100.00;-18533.91;4998437;28;19922;-79
2023/05/22 05:18:32;;;;;;;;;;;;;;;18.95;100.00;-18536.91;4997910;28;19980;-79
2023/05/22 05:20:57;;;;;;;;;;;;;;;19.15;100.00;-18542.34;4999927;28;19922;-79
2023/05/22 05:23:23;;;;;;;;;;;;;;;19.12;100.00;-18541.53;4999744;28;19960;-79
2023/05/22 05:25:48;;;;;;;;;;;;;;;19.04;100.00;-18539.34;5000347;28;19922;-79
2023/05/22 05:28:13;;;;;;;;;;;;;;;19.04;100.00;-18539.22;5002904;28;19932;-79
2023/05/22 05:30:39;;;;;;;;;;;;;;;19.19;100.00;-18543.31;4995857;28;20413;-80
2023/05/22 05:33:04;;;;;;;;;;;;;;;19.40;100.00;-18548.88;5000536;28;19921;-78
2023/05/22 05:35:30;;;;;;;;;;;;;;;19.38;100.00;-18548.34;5002155;28;19922;-79
2023/05/22 05:37:55;;;;;;;;;;;;;;;19.53;100.00;-18552.28;5004091;28;19921;-79
2023/05/22 05:40:20;;;;;;;;;;;;;;;19.56;100.00;-18553.25;4997570;28;19945;-79
2023/05/22 05:42:45;;;;;;;;;;;;;;;19.35;100.00;-18547.66;5004244;28;20385;-79
2023/05/22 05:45:12;;;;;;;;;;;;;;;19.45;100.00;-18550.25;5000710;28;20297;-80
2023/05/22 05:47:37;;;;;;;;;;;;;;;19.43;100.00;-18549.69;5003149;28;20442;-79
2023/05/22 05:50:02;;;;;;;;;;;;;;;19.58;100.00;-18553.78;4999043;28;19928;-80
2023/05/22 05:52:31;;;;;;;;;;;;;;;19.74;100.00;-18557.88;5004137;28;20469;-80
2023/05/22 05:54:56;;;;;;;;;;;;;;;19.67;100.00;-18555.97;5002158;28;19943;-79
2023/05/22 05:57:21;;;;;;;;;;;;;;;19.67;100.00;-18556.09;4998397;28;19926;-79
2023/05/22 05:59:47;;;;;;;;;;;;;;;19.88;100.00;-18561.69;5000774;28;20016;-80
2023/05/22 06:02:12;;;;;;;;;;;;;;;20.06;100.00;-18566.59;5004704;28;20016;-78
2023/05/22 06:04:37;;;;;;;;;;;;;;;19.78;100.00;-18558.97;4995019;28;19957;-78
2023/05/22 06:07:02;;;;;;;;;;;;;;;19.89;100.00;-18561.81;5006389;28;19933;-79
2023/05/22 06:09:28;;;;;;;;;;;;;;;20.04;100.00;-18565.91;5006802;28;19983;-79
2023/05/22 06:11:53;;;;;;;;;;;;;;;20.02;100.00;-18565.38;4999844;28;19932;-79
2023/05/22 06:14:18;;;;;;;;;;;;;;;20.08;100.00;-18566.88;4996613;28;20076;-79
2023/05/22 06:16:44;;;;;;;;;;;;;;;19.90;100.00;-18562.22;5002170;28;19925;-77
2023/05/22 06:19:09;;;;;;;;;;;;;;;19.99;100.00;-18564.69;5005300;28;19925;-77
2023/05/22 06:21:35;;;;;;;;;;;;;;;20.08;100.00;-18567.00;5002314;28;20427;-78
2023/05/22 06:24:00;;;;;;;;;;;;;;;19.97;100.00;-18564.16;5000016;28;19922;-78
2023/05/22 06:26:26;;;;;;;;;;;;;;;19.78;100.00;-18559.09;5002440;28;20393;-78
2023/05/22 06:28:52;;;;;;;;;;;;;;;19.72;100.00;-18557.47;5003296;28;20033;-78
2023/05/22 06:31:18;;;;;;;;;;;;;;;19.81;100.00;-18559.78;5003002;28;20312;-78
2023/05/22 06:33:43;;;;;;;;;;;;;;;19.73;100.00;-18557.59;4996845;28;19929;-77
2023/05/22 06:36:10;;;;;;;;;;;;;;;19.74;100.00;-18558.00;4998327;28;19925;-78
2023/05/22 06:38:36;;;;;;;;;;;;;;;19.80;100.00;-18559.50;4996560;28;19926;-78
2023/05/22 06:41:02;;;;;;;;;;;;;;;19.87;100.00;-18561.28;4998424;28;19992;-78
2023/05/22 06:43:27;;;;;;;;;;;;;;;20.10;100.00;-18567.41;4992788;28;19922;-78
2023/05/22 06:45:52;;;;;;;;;;;;;;;20.27;100.00;-18572.03;5001055;28;19932;-78
2023/05/22 06:48:17;;;;;;;;;;;;;;;20.33;100.00;-18573.53;4999260;28;19921;-78
2023/05/22 06:50:43;;;;;;;;;;;;;;;20.32;100.00;-18573.41;5002606;28;20630;-78
2023/05/22 06:53:08;;;;;;;;;;;;;;;20.22;100.00;-18570.81;4998473;28;20312;-78
2023/05/22 06:55:33;;;;;;;;;;;;;;;20.25;100.00;-18571.63;5004671;28;19957;-78
2023/05/22 06:57:58;;;;;;;;;;;;;;;20.37;100.00;-18574.75;5004185;28;19995;-78
2023/05/22 07:00:24;;;;;;;;;;;;;;;20.27;100.00;-18572.03;5000480;28;19926;-78
2023/05/22 07:02:49;;;;;;;;;;;;;;;20.38;100.00;-18574.91;4997592;28;19922;-78
2023/05/22 07:05:14;;;;;;;;;;;;;;;20.53;100.00;-18578.97;5002085;28;20376;-78
2023/05/22 07:07:39;;;;;;;;;;;;;;;20.33;100.00;-18573.53;5000512;28;20007;-78
2023/05/22 07:10:05;;;;;;;;;;;;;;;20.53;100.00;-18578.97;5004503;28;19921;-78
2023/05/22 07:12:31;;;;;;;;;;;;;;;20.57;100.00;-18579.94;4999057;28;20290;-79
2023/05/22 07:14:58;;;;;;;;;;;;;;;20.66;100.00;-18582.38;4999620;28;19929;-78
2023/05/22 07:17:23;;;;;;;;;;;;;;;20.83;100.00;-18586.88;4999769;28;20321;-79
2023/05/22 07:19:49;;;;;;;;;;;;;;;21.07;100.00;-18593.25;5002634;28;19926;-78
2023/05/22 07:22:14;;;;;;;;;;;;;;;21.02;100.00;-18592.03;4997869;28;20017;-78
2023/05/22 07:24:39;;;;;;;;;;;;;;;21.14;100.00;-18595.16;5006281;28;20008;-79
2023/05/22 07:27:05;;;;;;;;;;;;;;;21.17;100.00;-18595.97;4996563;28;19961;-78
2023/05/22 07:29:30;;;;;;;;;;;;;;;21.25;100.00;-18598.03;5003298;28;19928;-78
2023/05/22 07:31:55;;;;;;;;;;;;;;;21.26;100.00;-18598.44;5000629;28;20425;-78
2023/05/22 07:34:21;;;;;;;;;;;;;;;21.54;100.00;-18605.78;5002227;28;20456;-78
2023/05/22 07:36:47;;;;;;;;;;;;;;;21.52;100.00;-18605.22;5003503;28;20495;-78
2023/05/22 07:39:12;;;;;;;;;;;;;;;21.45;100.00;-18603.31;4995904;28;19962;-78
2023/05/22 07:41:38;;;;;;;;;;;;;;;21.52;100.00;-18605.22;5004140;28;19929;-79
2023/05/22 07:44:03;;;;;;;;;;;;;;;21.79;100.00;-18612.56;4995235;28;19922;-79
2023/05/22 07:46:28;;;;;;;;;;;;;;;21.85;100.00;-18614.06;5002088;28;19925;-79
2023/05/22 07:48:54;;;;;;;;;;;;;;;22.05;100.00;-18619.50;5017609;28;19936;-79
2023/05/22 07:51:19;;;;;;;;;;;;;;;22.23;100.00;-18624.25;5007280;28;19928;-79
2023/05/22 07:53:44;;;;;;;;;;;;;;;22.02;100.00;-18618.53;5003315;28;20361;-79
2023/05/22 07:56:10;;;;;;;;;;;;;;;22.08;100.00;-18620.31;5001668;28;20372;-77
2023/05/22 07:58:35;;;;;;;;;;;;;;;22.10;100.00;-18620.72;5003608;28;19922;-78
2023/05/22 08:01:01;;;;;;;;;;;;;;;22.26;100.00;-18624.94;5002553;28;19932;-77
2023/05/22 08:03:26;;;;;;;;;;;;;;;22.25;100.00;-18624.66;5011095;28;20109;-78
2023/05/22 08:05:51;;;;;;;;;;;;;;;22.37;100.00;-18627.78;5000824;28;19972;-80
2023/05/22 08:08:17;;;;;;;;;;;;;;;22.60;100.00;-18634.03;5001981;28;20353;-77
2023/05/22 08:10:42;;;;;;;;;;;;;;;22.53;100.00;-18632.28;5001248;28;19928;-79
2023/05/22 08:13:07;;;;;;;;;;;;;;;22.74;100.00;-18637.84;4998582;28;20026;-78
2023/05/22 08:15:33;;;;;;;;;;;;;;;22.62;100.00;-18634.56;4996592;28;19972;-80
2023/05/22 08:17:58;;;;;;;;;;;;;;;22.74;100.00;-18637.84;5007653;28;20075;-80
2023/05/22 08:20:24;;;;;;;;;;;;;;;22.90;100.00;-18642.03;5000146;28;20305;-78
2023/05/22 08:22:49;;;;;;;;;;;;;;;22.67;100.00;-18635.94;5001350;28;20016;-80
2023/05/22 08:25:14;;;;;;;;;;;;;;;23.03;100.00;-18645.44;5000614;28;19925;-79
2023/05/22 08:27:40;;;;;;;;;;;;;;;23.17;100.00;-18649.25;4998000;28;19932;-78
2023/05/22 08:30:05;;;;;;;;;;;;;;;23.08;100.00;-18646.78;5001766;28;19926;-78
2023/05/22 08:32:31;;;;;;;;;;;;;;;23.10;100.00;-18647.19;5002306;28;19928;-79
2023/05/22 08:34:56;;;;;;;;;;;;;;;23.06;100.00;-18646.25;4997198;28;19925;-78
2023/05/22 08:37:21;;;;;;;;;;;;;;;23.08;100.00;-18646.66;5000643;28;20255;-79
2023/05/22 08:39:46;;;;;;;;;;;;;;;23.33;100.00;-18653.31;4997443;28;19925;-78
2023/05/22 08:42:12;;;;;;;;;;;;;;;23.39;100.00;-18655.06;5000581;28;19936;-79
2023/05/22 08:44:38;;;;;;;;;;;;;;;23.63;100.00;-18661.44;5002749;28;19922;-80
2023/05/22 08:47:08;;;;;;;;;;;;;;;23.61;100.00;-18660.75;5000430;28;20325;-79
2023/05/22 08:49:33;;;;;;;;;;;;;;;23.87;100.00;-18667.69;5005592;28;19926;-80
2023/05/22 08:52:02;;;;;;;;;;;;;;;23.91;100.00;-18668.78;4998486;28;20440;-78
2023/05/22 08:54:27;;;;;;;;;;;;;;;24.08;100.00;-18673.38;5003232;28;19977;-79
2023/05/22 08:56:53;;;;;;;;;;;;;;;24.29;100.00;-18678.94;5019342;28;20027;-79
2023/05/22 08:59:19;;;;;;;;;;;;;;;24.40;100.00;-18681.63;5006925;28;19921;-80
2023/05/22 09:01:45;;;;;;;;;;;;;;;24.52;100.00;-18684.91;5000801;28;20136;-80
2023/05/22 09:04:10;;;;;;;;;;;;;;;24.45;100.00;-18683.00;5013503;28;19921;-80
2023/05/22 09:06:37;;;;;;;;;;;;;;;24.56;100.00;-18685.84;5007744;28;19975;-79
2023/05/22 09:09:02;;;;;;;;;;;;;;;24.74;100.00;-18690.84;5009904;28;19921;-80
2023/05/22 09:11:27;;;;;;;;;;;;;;;24.52;100.00;-18685.03;5007243;28;19944;-79
2023/05/22 09:14:05;;;;;;;;;;;;;;;24.62;100.00;-18687.47;5011339;28;20432;-79
2023/05/22 09:16:30;;;;;;;;;;;;;;;24.75;100.00;-18691.13;5004280;28;19922;-80
2023/05/22 09:18:55;;;;;;;;;;;;;;;25.12;100.00;-18700.88;5006787;28;19936;-79
2023/05/22 09:21:26;;;;;;;;;;;;;;;25.13;100.00;-18701.00;5005145;28;19922;-80
2023/05/22 09:23:51;;;;;;;;;;;;;;;25.15;100.00;-18701.69;5003765;28;19937;-79
2023/05/22 09:26:16;;;;;;;;;;;;;;;25.30;100.00;-18705.47;5010278;28;20181;-80
2023/05/22 09:28:41;;;;;;;;;;;;;;;25.25;100.00;-18704.13;5005345;28;19927;-80
2023/05/22 09:31:07;;;;;;;;;;;;;;;25.47;100.00;-18710.09;5003286;28;19977;-80
2023/05/22 09:33:35;;;;;;;;;;;;;;;25.07;100.00;-18699.38;5006685;28;19922;-79
2023/05/22 09:36:01;;;;;;;;;;;;;;;25.11;100.00;-18700.47;5027081;28;19926;-79
2023/05/22 09:38:28;;;;;;;;;;;;;;;25.14;100.00;-18701.28;5006272;28;19926;-79
2023/05/22 09:40:54;;;;;;;;;;;;;;;25.25;100.00;-18704.25;5021911;28;19928;-80
2023/05/22 09:43:20;;;;;;;;;;;;;;;25.32;100.00;-18706.16;5005442;28;20385;-79
2023/05/22 09:45:46;;;;;;;;;;;;;;;25.39;100.00;-18707.91;5006434;28;19929;-80
2023/05/22 09:48:11;;;;;;;;;;;;;;;25.39;100.00;-18707.91;5007132;28;19921;-78
2023/05/22 09:50:38;;;;;;;;;;;;;;;25.42;100.00;-18708.88;5007342;28;19926;-80
2023/05/22 09:53:04;;;;;;;;;;;;;;;25.55;100.00;-18712.25;5004950;28;20088;-80
2023/05/22 09:55:30;;;;;;;;;;;;;;;25.53;100.00;-18711.56;5008872;28;20012;-79
2023/05/22 09:57:56;;;;;;;;;;;;;;;25.59;100.00;-18713.34;5004336;28;19921;-80
2023/05/22 10:00:22;;;;;;;;;;;;;;;25.78;100.00;-18718.34;5002950;28;19921;-79
2023/05/22 10:03:02;;;;;;;;;;;;;;;25.88;100.00;-18721.03;5002285;28;19925;-79
2023/05/22 10:05:29;;;;;;;;;;;;;;;26.02;100.00;-18724.56;5012802;28;19922;-80
2023/05/22 10:07:55;;;;;;;;;;;;;;;26.20;100.00;-18729.28;5008100;28;19930;-79
2023/05/22 10:10:21;;;;;;;;;;;;;;;26.13;100.00;-18727.53;5001393;28;19949;-80
2023/05/22 10:12:50;;;;;;;;;;;;;;;25.98;100.00;-18723.47;5006328;28;19926;-79
2023/05/22 10:15:16;;;;;;;;;;;;;;;25.79;100.00;-18718.47;5006505;28;20013;-79
2023/05/22 10:17:41;;;;;;;;;;;;;;;25.90;100.00;-18721.31;5007118;28;19928;-79
2023/05/22 10:20:07;;;;;;;;;;;;;;;25.97;100.00;-18723.22;5002605;28;19921;-79
2023/05/22 10:22:37;;;;;;;;;;;;;;;26.04;100.00;-18725.25;5000352;28;19921;-80
2023/05/22 10:25:02;;;;;;;;;;;;;;;26.52;100.00;-18737.94;5017380;28;19929;-80
2023/05/22 10:27:28;;;;;;;;;;;;;;;26.72;98.45;-18743.09;5001615;28;19926;-80
2023/05/22 10:29:57;;;;;;;;;;;;;;;26.55;97.19;-18738.63;5009821;28;19980;-80
2023/05/22 10:32:29;;;;;;;;;;;;;;;26.68;96.95;-18742.00;5001205;28;20012;-81
2023/05/22 10:35:12;;;;;;;;;;;;;;;26.67;100.00;-18741.88;5003097;28;20047;-80
2023/05/22 10:37:44;;;;;;;;;;;;;;;26.85;96.62;-18746.47;5001470;28;19929;-79
2023/05/22 10:40:11;;;;;;;;;;;;;;;26.88;97.73;-18747.41;4999957;28;19922;-79
2023/05/22 10:42:37;;;;;;;;;;;;;;;26.90;100.00;-18747.81;5005786;28;19921;-80
2023/05/22 10:45:03;;;;;;;;;;;;;;;26.89;96.88;-18747.69;5000793;28;19943;-78
2023/05/22 10:47:28;;;;;;;;;;;;;;;26.89;87.68;-18747.53;5006502;28;19926;-79
2023/05/22 10:50:03;;;;;;;;;;;;;;;26.78;97.46;-18744.84;5003859;28;20928;-78
2023/05/22 10:52:28;;;;;;;;;;;;;;;26.96;94.10;-18749.44;5008047;28;19922;-78
2023/05/22 10:54:53;;;;;;;;;;;;;;;27.09;90.43;-18752.94;5009769;28;20049;-80
2023/05/22 10:57:19;;;;;;;;;;;;;;;26.97;84.50;-18749.84;5007818;28;19929;-81
2023/05/22 10:59:48;;;;;;;;;;;;;;;26.88;92.91;-18747.41;5004721;28;19929;-79
2023/05/22 11:02:20;;;;;;;;;;;;;;;27.00;91.28;-18750.50;5012200;28;19922;-79
2023/05/22 11:04:45;;;;;;;;;;;;;;;26.93;85.66;-18748.75;5007418;28;19976;-79
2023/05/22 11:07:13;;;;;;;;;;;;;;;27.22;91.80;-18756.31;5000660;28;19988;-80
2023/05/22 11:09:44;;;;;;;;;;;;;;;27.16;84.82;-18754.84;5008852;28;20028;-78
2023/05/22 11:12:23;;;;;;;;;;;;;;;27.05;84.96;-18751.88;5004958;28;20316;-81
2023/05/22 11:14:52;;;;;;;;;;;;;;;27.27;86.68;-18757.53;5001774;28;19922;-80
2023/05/22 11:17:27;;;;;;;;;;;;;;;27.35;82.06;-18759.69;5001758;28;19930;-80
2023/05/22 11:20:00;;;;;;;;;;;;;;;27.60;76.95;-18766.31;5010699;28;19964;-80
2023/05/22 11:22:35;;;;;;;;;;;;;;;27.52;85.44;-18764.28;5008600;28;19940;-80
2023/05/22 11:25:06;;;;;;;;;;;;;;;27.56;75.42;-18765.38;4999746;28;20052;-81
2023/05/22 11:27:31;;;;;;;;;;;;;;;27.11;75.73;-18753.34;5006925;28;19981;-79
2023/05/22 11:29:58;;;;;;;;;;;;;;;27.27;77.64;-18757.53;5005303;28;20419;-80
2023/05/22 11:32:23;;;;;;;;;;;;;;;27.36;75.72;-18759.97;5008599;28;19921;-80
2023/05/22 11:34:49;;;;;;;;;;;;;;;27.60;80.94;-18766.44;4998333;28;19922;-80
2023/05/22 11:37:17;;;;;;;;;;;;;;;27.18;77.55;-18755.38;5001302;28;20411;-80
2023/05/22 11:39:42;;;;;;;;;;;;;;;27.07;84.76;-18752.41;5006582;28;20504;-80
2023/05/22 11:42:08;;;;;;;;;;;;;;;27.57;76.84;-18765.63;5008122;28;19925;-80
2023/05/22 11:44:33;;;;;;;;;;;;;;;27.77;81.60;-18770.78;5005002;28;19921;-80
2023/05/22 11:46:58;;;;;;;;;;;;;;;27.75;74.93;-18770.38;5007114;28;20452;-79
2023/05/22 11:49:24;;;;;;;;;;;;;;;27.58;77.74;-18765.78;5004966;28;20365;-79
2023/05/22 11:51:50;;;;;;;;;;;;;;;27.47;81.87;-18762.81;5005763;28;19917;-80
2023/05/22 11:54:19;;;;;;;;;;;;;;;27.71;82.07;-18769.16;4998749;28;19937;-80
2023/05/22 11:56:44;;;;;;;;;;;;;;;27.61;83.97;-18766.59;5000935;28;19933;-80
2023/05/22 11:59:09;;;;;;;;;;;;;;;27.58;81.75;-18765.91;4996632;28;19929;-80
2023/05/22 12:01:35;;;;;;;;;;;;;;;27.45;84.21;-18762.41;5004855;28;20278;-80
2023/05/22 12:04:00;;;;;;;;;;;;;;;27.62;84.90;-18766.84;5000495;28;20023;-80
2023/05/22 12:06:26;;;;;;;;;;;;;;;27.80;74.50;-18771.72;5002599;28;19926;-79
2023/05/22 12:08:53;;;;;;;;;;;;;;;27.64;75.43;-18767.53;5005463;28;20214;-80
2023/05/22 12:11:18;;;;;;;;;;;;;;;27.47;79.92;-18762.81;5000313;28;19921;-80
2023/05/22 12:13:44;;;;;;;;;;;;;;;27.57;76.57;-18765.50;4999648;28;19928;-80
2023/05/22 12:16:22;;;;;;;;;;;;;;;27.47;77.55;-18762.81;5004347;28;20852;-80
2023/05/22 12:18:51;;;;;;;;;;;;;;;27.78;81.24;-18771.16;5001467;28;19929;-80
2023/05/22 12:21:17;;;;;;;;;;;;;;;27.93;68.52;-18775.09;5006235;28;19929;-79
2023/05/22 12:23:49;;;;;;;;;;;;;;;28.02;73.51;-18777.38;5002097;28;19921;-80